createdAt,value
2023-02-15T00:00:28.051Z,2.15
2023-02-15T00:05:59.203Z,2.38
2023-02-15T00:11:50.825Z,1.90
2023-02-15T00:17:20.927Z,2.05
2023-02-15T00:22:49.756Z,1.90
2023-02-15T00:28:18.606Z,2.13
2023-02-15T00:33:47.196Z,1.75
2023-02-15T00:39:11.421Z,1.73
2023-02-15T00:50:11.733Z,1.48
2023-02-15T00:55:35.373Z,1.77
2023-02-15T01:01:07.124Z,1.98
2023-02-15T01:06:32.996Z,2.30
2023-02-15T01:11:59.273Z,2.65
2023-02-15T01:17:25.174Z,3.05
2023-02-15T01:22:55.967Z,3.67
2023-02-15T01:28:24.920Z,8.50
2023-02-15T01:33:53.910Z,6.65
2023-02-15T01:39:21.983Z,4.28
2023-02-15T01:44:53.574Z,3.20
2023-02-15T01:50:27.898Z,1.77
2023-02-15T01:56:02.559Z,2.08
2023-02-15T02:01:33.211Z,2.40
2023-02-15T02:07:03.135Z,2.20
2023-02-15T02:12:38.039Z,3.03
2023-02-15T02:18:18.259Z,2.90
2023-02-15T02:23:57.302Z,2.40
2023-02-15T02:30:05.718Z,1.95
2023-02-15T02:35:43.445Z,2.05
2023-02-15T02:41:19.996Z,3.08
2023-02-15T02:46:51.621Z,4.60
2023-02-15T02:52:39.626Z,9.32
2023-02-15T02:58:07.970Z,4.65
2023-02-15T03:03:42.203Z,2.85
2023-02-15T03:09:16.434Z,2.05
2023-02-15T03:14:49.700Z,3.90
2023-02-15T03:20:18.001Z,3.85
2023-02-15T03:25:45.869Z,3.85
2023-02-15T03:31:12.287Z,3.28
2023-02-15T03:36:43.720Z,3.20
2023-02-15T03:42:14.424Z,3.42
2023-02-15T03:47:43.043Z,4.82
2023-02-15T03:53:11.969Z,3.03
2023-02-15T03:58:59.426Z,4.38
2023-02-15T04:04:25.928Z,2.50
2023-02-15T04:10:12.950Z,3.28
2023-02-15T04:15:56.603Z,5.05
2023-02-15T04:21:43.744Z,9.05
2023-02-15T04:27:14.350Z,6.13
2023-02-15T04:32:48.408Z,4.10
2023-02-15T04:38:19.341Z,4.25
2023-02-15T04:43:44.012Z,3.28
2023-02-15T04:49:14.760Z,3.08
2023-02-15T04:54:43.485Z,2.00
2023-02-15T05:00:13.741Z,2.38
2023-02-15T05:05:38.179Z,3.03
2023-02-15T05:11:08.201Z,4.10
2023-02-15T05:16:33.822Z,4.50
2023-02-15T05:21:59.854Z,3.45
2023-02-15T05:27:41.788Z,2.80
2023-02-15T05:33:10.960Z,2.75
2023-02-15T05:38:40.430Z,3.22
2023-02-15T05:44:09.492Z,3.42
2023-02-15T05:49:38.981Z,5.22
2023-02-15T05:55:05.461Z,4.38
2023-02-15T06:00:38.059Z,3.97
2023-02-15T06:06:02.496Z,3.58
2023-02-15T06:11:28.668Z,3.85
2023-02-15T06:16:53.133Z,4.22
2023-02-15T06:22:17.972Z,3.25
2023-02-15T06:27:44.927Z,4.10
2023-02-15T06:33:08.030Z,3.67
2023-02-15T06:38:32.144Z,4.00
2023-02-15T06:43:56.663Z,3.92
2023-02-15T06:49:20.723Z,4.63
2023-02-15T06:54:45.019Z,5.45
2023-02-15T07:00:15.416Z,6.60
2023-02-15T07:05:45.803Z,4.43
2023-02-15T07:11:28.281Z,4.93
2023-02-15T07:16:53.988Z,4.85
2023-02-15T07:22:17.540Z,3.63
2023-02-15T07:27:42.726Z,6.38
2023-02-15T07:33:25.688Z,7.13
2023-02-15T07:38:48.744Z,5.88
2023-02-15T07:44:18.045Z,5.38
2023-02-15T07:49:44.546Z,4.68
2023-02-15T07:55:13.992Z,3.80
2023-02-15T08:00:56.467Z,3.63
2023-02-15T08:06:28.949Z,3.58
2023-02-15T08:11:57.996Z,3.55
2023-02-15T08:17:27.461Z,7.87
2023-02-15T08:28:23.162Z,4.53
2023-02-15T08:33:48.325Z,2.78
2023-02-15T08:39:14.317Z,4.10
2023-02-15T08:44:37.760Z,4.22
2023-02-15T08:50:01.900Z,4.78
2023-02-15T08:55:27.037Z,8.82
2023-02-15T09:00:51.070Z,9.02
2023-02-15T09:06:14.696Z,7.25
2023-02-15T09:11:42.194Z,2.60
2023-02-15T09:17:07.063Z,3.28
2023-02-15T09:22:32.900Z,4.35
2023-02-15T09:27:58.445Z,8.25
2023-02-15T09:33:20.820Z,3.00
2023-02-15T09:38:54.364Z,4.05
2023-02-15T09:44:34.298Z,3.75
2023-02-15T09:50:10.078Z,3.65
2023-02-15T09:55:52.532Z,2.92
2023-02-15T10:01:36.095Z,2.42
2023-02-15T10:07:14.686Z,7.03
2023-02-15T10:12:59.873Z,4.30
2023-02-15T10:18:44.770Z,4.55
2023-02-15T10:24:40.628Z,5.32
2023-02-15T10:30:12.439Z,5.43
2023-02-15T10:35:50.750Z,2.75
2023-02-15T10:41:35.437Z,3.42
2023-02-15T10:47:22.974Z,2.78
2023-02-15T10:53:07.597Z,3.83
2023-02-15T10:58:44.797Z,3.55
2023-02-15T11:04:38.782Z,4.47
2023-02-15T11:10:27.230Z,4.22
2023-02-15T11:15:57.938Z,2.95
2023-02-15T11:21:24.997Z,3.78
2023-02-15T11:26:57.993Z,3.00
2023-02-15T11:32:27.406Z,3.40
2023-02-15T11:37:55.735Z,5.72
2023-02-15T11:43:30.517Z,4.00
2023-02-15T11:48:57.479Z,3.15
2023-02-15T11:54:26.051Z,3.42
2023-02-15T12:00:01.283Z,2.67
2023-02-15T12:05:31.940Z,2.60
2023-02-15T12:11:08.332Z,2.13
2023-02-15T12:16:41.999Z,2.47
2023-02-15T12:22:10.191Z,2.17
2023-02-15T12:27:36.651Z,3.47
2023-02-15T12:33:17.743Z,2.72
2023-02-15T12:38:42.387Z,4.25
2023-02-15T12:44:14.362Z,1.65
2023-02-15T12:49:47.567Z,2.30
2023-02-15T12:55:25.483Z,3.50
2023-02-15T13:00:48.539Z,2.83
2023-02-15T13:06:15.596Z,3.30
2023-02-15T13:11:39.580Z,3.35
2023-02-15T13:17:11.903Z,2.65
2023-02-15T13:22:47.844Z,2.22
2023-02-15T13:28:19.949Z,4.03
2023-02-15T13:33:53.154Z,1.90
2023-02-15T13:39:27.141Z,2.73
2023-02-15T13:45:23.315Z,3.75
2023-02-15T13:51:09.048Z,2.15
2023-02-15T13:56:51.634Z,3.20
2023-02-15T14:02:45.038Z,3.33
2023-02-15T14:08:16.639Z,4.60
2023-02-15T14:14:13.944Z,5.72
2023-02-15T14:19:50.988Z,4.18
2023-02-15T14:25:29.569Z,3.10
2023-02-15T14:30:55.409Z,4.80
2023-02-15T14:36:22.217Z,4.35
2023-02-15T14:47:29.123Z,4.03
2023-02-15T14:53:17.606Z,3.85
2023-02-15T14:59:15.397Z,3.55
2023-02-15T15:04:44.852Z,3.45
2023-02-15T15:10:42.743Z,3.10
2023-02-15T15:16:42.103Z,3.53
2023-02-15T15:22:07.821Z,5.15
2023-02-15T15:27:54.806Z,3.87
2023-02-15T15:33:46.380Z,4.30
2023-02-15T15:39:30.809Z,4.30
2023-02-15T15:45:18.529Z,5.28
2023-02-15T15:50:44.005Z,6.80
2023-02-15T15:56:13.579Z,4.60
2023-02-15T16:01:46.468Z,4.90
2023-02-15T16:07:27.910Z,4.57
2023-02-15T16:12:57.723Z,3.88
2023-02-15T16:18:29.821Z,3.10
2023-02-15T16:24:08.921Z,4.88
2023-02-15T16:29:36.493Z,3.78
2023-02-15T16:35:05.549Z,4.53
2023-02-15T16:40:52.146Z,4.63
2023-02-15T16:46:27.446Z,6.07
2023-02-15T16:52:00.797Z,4.70
2023-02-15T16:57:34.142Z,3.30
2023-02-15T17:03:05.899Z,4.57
2023-02-15T17:08:33.422Z,4.20
2023-02-15T17:14:24.080Z,4.15
2023-02-15T17:19:55.753Z,4.25
2023-02-15T17:25:27.932Z,2.75
2023-02-15T17:30:54.318Z,3.05
2023-02-15T17:36:25.478Z,3.50
2023-02-15T17:47:27.760Z,3.65
2023-02-15T17:52:59.342Z,4.82
2023-02-15T17:58:29.311Z,5.18
2023-02-15T18:04:11.487Z,5.53
2023-02-15T18:09:59.022Z,4.70
2023-02-15T18:15:27.861Z,5.00
2023-02-15T18:20:53.192Z,6.68
2023-02-15T18:26:21.871Z,5.20
2023-02-15T18:31:53.787Z,3.08
2023-02-15T18:37:23.860Z,3.47
2023-02-15T18:42:49.579Z,4.10
2023-02-15T18:48:15.492Z,5.35
2023-02-15T18:53:50.182Z,4.15
2023-02-15T18:59:18.624Z,2.45
2023-02-15T19:04:46.600Z,2.70
2023-02-15T19:10:18.860Z,2.50
2023-02-15T19:15:42.748Z,2.45
2023-02-15T19:21:19.484Z,2.38
2023-02-15T19:26:46.165Z,3.90
2023-02-15T19:32:13.422Z,6.35
2023-02-15T19:37:42.559Z,7.57
2023-02-15T19:43:17.471Z,8.15
2023-02-15T19:48:40.902Z,7.17
2023-02-15T19:54:31.006Z,4.00
2023-02-15T20:00:12.450Z,7.07
2023-02-15T20:05:45.073Z,7.57
2023-02-15T20:11:11.761Z,6.78
2023-02-15T20:16:41.272Z,7.75
2023-02-15T20:22:04.682Z,9.20
2023-02-15T20:27:37.402Z,7.47
2023-02-15T20:33:06.196Z,5.45
2023-02-15T20:38:33.615Z,5.03
2023-02-15T20:43:58.984Z,7.82
2023-02-15T20:49:28.999Z,5.95
2023-02-15T20:54:57.982Z,3.35
2023-02-15T21:00:30.650Z,3.67
2023-02-15T21:05:58.569Z,3.38
2023-02-15T21:11:27.990Z,4.65
2023-02-15T21:16:55.378Z,5.53
2023-02-15T21:22:18.236Z,5.72
2023-02-15T21:27:44.477Z,5.80
2023-02-15T21:33:14.105Z,6.22
2023-02-15T21:38:43.510Z,6.25
2023-02-15T21:44:31.346Z,4.65
2023-02-15T21:50:21.153Z,3.92
2023-02-15T21:55:50.104Z,5.97
2023-02-15T22:01:24.316Z,4.70
2023-02-15T22:06:54.622Z,2.85
2023-02-15T22:12:24.535Z,3.10
2023-02-15T22:17:48.779Z,3.10
2023-02-15T22:23:17.224Z,2.33
2023-02-15T22:28:42.704Z,2.25
2023-02-15T22:34:05.894Z,1.90
2023-02-15T22:39:36.359Z,1.70
2023-02-15T22:45:01.005Z,1.80
2023-02-15T22:50:31.208Z,2.03
2023-02-15T22:55:57.448Z,1.35
2023-02-15T23:01:31.748Z,1.52
2023-02-15T23:06:58.266Z,1.00
2023-02-15T23:12:49.717Z,1.20
2023-02-15T23:18:19.528Z,1.23
2023-02-15T23:23:50.426Z,1.58
2023-02-15T23:29:19.441Z,1.67
2023-02-15T23:34:46.928Z,1.58
2023-02-15T23:40:34.386Z,1.88
2023-02-15T23:46:06.395Z,1.60
2023-02-15T23:51:32.423Z,1.63
2023-02-15T23:57:01.323Z,1.38
